createdAt,value
2022-12-03T00:02:20.230Z,42.55
2022-12-03T00:04:48.232Z,40.15
2022-12-03T00:07:14.965Z,41.10
2022-12-03T00:09:42.761Z,36.33
2022-12-03T00:12:09.572Z,38.50
2022-12-03T00:14:41.269Z,41.80
2022-12-03T00:17:11.057Z,38.03
2022-12-03T00:19:38.124Z,42.58
2022-12-03T00:22:04.853Z,39.97
2022-12-03T00:24:32.317Z,42.58
2022-12-03T00:26:59.000Z,43.40
2022-12-03T00:29:26.065Z,38.72
2022-12-03T00:31:52.773Z,37.17
2022-12-03T00:34:19.925Z,39.08
2022-12-03T00:36:46.672Z,38.03
2022-12-03T00:39:13.688Z,41.47
2022-12-03T00:41:40.406Z,38.33
2022-12-03T00:44:07.427Z,36.95
2022-12-03T00:46:34.265Z,38.95
2022-12-03T00:49:01.485Z,39.22
2022-12-03T00:51:28.260Z,39.70
2022-12-03T00:53:55.328Z,41.03
2022-12-03T00:56:22.256Z,42.03
2022-12-03T00:58:49.524Z,41.42
2022-12-03T01:01:16.263Z,40.30
2022-12-03T01:03:43.351Z,41.85
2022-12-03T01:06:10.099Z,42.72
2022-12-03T01:08:37.116Z,42.33
2022-12-03T01:11:03.845Z,36.42
2022-12-03T01:13:30.965Z,41.35
2022-12-03T01:15:57.707Z,38.53
2022-12-03T01:18:24.725Z,39.58
2022-12-03T01:20:51.517Z,39.65
2022-12-03T01:23:18.621Z,39.75
2022-12-03T01:25:45.345Z,41.67
2022-12-03T01:28:12.344Z,40.78
2022-12-03T01:30:59.107Z,38.20
2022-12-03T01:33:26.256Z,38.53
2022-12-03T01:35:53.012Z,42.08
2022-12-03T01:38:20.234Z,45.65
2022-12-03T01:40:47.138Z,39.97
2022-12-03T01:43:14.197Z,40.80
2022-12-03T01:45:40.904Z,43.28
2022-12-03T01:48:09.209Z,40.90
2022-12-03T01:50:35.900Z,41.00
2022-12-03T01:53:03.176Z,42.05
2022-12-03T01:55:29.980Z,42.25
2022-12-03T01:57:58.396Z,40.13
2022-12-03T02:00:27.096Z,43.30
2022-12-03T02:02:58.756Z,42.10
2022-12-03T02:05:27.448Z,41.33
2022-12-03T02:07:54.727Z,43.58
2022-12-03T02:10:23.869Z,45.33
2022-12-03T02:12:52.528Z,42.60
2022-12-03T02:15:19.312Z,39.85
2022-12-03T02:17:46.524Z,46.33
2022-12-03T02:20:13.285Z,41.20
2022-12-03T02:22:46.856Z,44.03
2022-12-03T02:25:17.539Z,49.65
2022-12-03T02:27:44.583Z,43.40
2022-12-03T02:30:11.938Z,44.97
2022-12-03T02:32:38.998Z,44.13
2022-12-03T02:35:06.059Z,41.35
2022-12-03T02:37:34.170Z,43.22
2022-12-03T02:40:03.980Z,46.97
2022-12-03T02:42:37.054Z,46.15
2022-12-03T02:45:18.090Z,47.80
2022-12-03T02:47:55.339Z,45.38
2022-12-03T02:50:25.722Z,45.95
2022-12-03T02:52:52.855Z,42.15
2022-12-03T02:55:19.713Z,41.75
2022-12-03T02:57:47.346Z,42.58
2022-12-03T03:00:14.598Z,43.33
2022-12-03T03:02:41.783Z,45.60
2022-12-03T03:05:09.503Z,41.05
2022-12-03T03:07:36.581Z,38.55
2022-12-03T03:10:04.249Z,40.33
2022-12-03T03:12:34.819Z,41.10
2022-12-03T03:15:06.385Z,37.93
2022-12-03T03:17:33.774Z,40.88
2022-12-03T03:20:00.481Z,40.42
2022-12-03T03:22:41.629Z,43.42
2022-12-03T03:25:13.392Z,44.58
2022-12-03T03:27:40.429Z,40.65
2022-12-03T03:30:08.100Z,38.38
2022-12-03T03:32:35.271Z,40.15
2022-12-03T03:35:02.174Z,39.05
2022-12-03T03:37:29.279Z,40.00
2022-12-03T03:39:55.958Z,39.35
2022-12-03T03:42:23.016Z,40.47
2022-12-03T03:44:49.867Z,36.50
2022-12-03T03:47:16.914Z,40.40
2022-12-03T03:49:43.765Z,37.38
2022-12-03T03:52:11.795Z,38.78
2022-12-03T03:54:38.601Z,40.65
2022-12-03T03:57:05.681Z,38.45
2022-12-03T03:59:32.415Z,38.50
2022-12-03T04:01:59.449Z,41.88
2022-12-03T04:04:29.121Z,38.85
2022-12-03T04:06:56.212Z,36.00
2022-12-03T04:09:22.918Z,44.10
2022-12-03T04:12:08.484Z,41.45
2022-12-03T04:14:35.220Z,44.25
2022-12-03T04:17:02.301Z,39.83
2022-12-03T04:19:29.085Z,41.88
2022-12-03T04:22:14.951Z,43.53
2022-12-03T04:24:41.741Z,47.08
2022-12-03T04:27:27.339Z,47.75
2022-12-03T04:29:54.104Z,46.92
2022-12-03T04:32:39.701Z,42.63
2022-12-03T04:35:25.197Z,47.13
2022-12-03T04:37:52.216Z,46.22
2022-12-03T04:40:57.412Z,45.47
2022-12-03T04:43:24.420Z,41.67
2022-12-03T04:45:51.227Z,46.03
2022-12-03T04:48:18.232Z,46.28
2022-12-03T04:50:44.947Z,50.45
2022-12-03T04:53:12.016Z,45.08
2022-12-03T04:55:38.752Z,44.72
2022-12-03T04:58:05.829Z,45.38
2022-12-03T05:00:32.647Z,43.05
2022-12-03T05:02:59.724Z,45.90
2022-12-03T05:05:26.823Z,45.63
2022-12-03T05:07:53.898Z,53.58
2022-12-03T05:10:20.619Z,46.63
2022-12-03T05:12:47.625Z,48.08
2022-12-03T05:15:14.383Z,48.72
2022-12-03T05:17:41.393Z,52.50
2022-12-03T05:20:27.830Z,49.30
2022-12-03T05:22:54.963Z,47.55
2022-12-03T05:25:21.676Z,55.03
2022-12-03T05:27:48.668Z,50.53
2022-12-03T05:30:15.614Z,55.40
2022-12-03T05:32:42.672Z,48.97
2022-12-03T05:35:10.311Z,55.75
2022-12-03T05:37:37.347Z,54.63
2022-12-03T05:40:04.559Z,54.17
2022-12-03T05:42:50.240Z,51.00
2022-12-03T05:45:17.288Z,60.40
2022-12-03T05:47:44.431Z,62.30
2022-12-03T05:50:11.563Z,70.22
2022-12-03T05:52:38.654Z,61.20
2022-12-03T05:55:05.881Z,65.95
2022-12-03T05:57:32.945Z,61.42
2022-12-03T05:59:59.696Z,60.40
2022-12-03T06:02:26.812Z,60.92
2022-12-03T06:04:54.112Z,59.65
2022-12-03T06:07:21.350Z,58.83
2022-12-03T06:09:48.083Z,61.53
2022-12-03T06:12:15.072Z,62.70
2022-12-03T06:14:41.810Z,64.10
2022-12-03T06:17:08.859Z,69.93
2022-12-03T06:19:35.603Z,60.38
2022-12-03T06:22:02.707Z,67.75
2022-12-03T06:24:29.472Z,64.00
2022-12-03T06:26:56.526Z,64.75
2022-12-03T06:29:23.247Z,61.50
2022-12-03T06:31:50.296Z,61.30
2022-12-03T06:34:17.033Z,59.25
2022-12-03T06:36:44.071Z,65.80
2022-12-03T06:39:10.852Z,56.50
2022-12-03T06:41:37.883Z,59.90
2022-12-03T06:44:04.797Z,56.10
2022-12-03T06:46:31.925Z,56.17
2022-12-03T06:48:58.811Z,63.80
2022-12-03T06:51:25.844Z,64.85
2022-12-03T06:53:52.560Z,61.47
2022-12-03T06:56:22.299Z,57.83
2022-12-03T06:58:49.399Z,62.22
2022-12-03T07:01:16.501Z,56.78
2022-12-03T07:03:43.209Z,60.65
2022-12-03T07:06:10.225Z,59.67
2022-12-03T07:08:36.963Z,61.83
2022-12-03T07:11:04.005Z,60.88
2022-12-03T07:13:30.727Z,64.50
2022-12-03T07:15:57.758Z,56.83
2022-12-03T07:18:24.594Z,57.05
2022-12-03T07:20:51.571Z,58.88
2022-12-03T07:23:18.278Z,61.03
2022-12-03T07:25:45.271Z,64.43
2022-12-03T07:28:11.966Z,65.57
2022-12-03T07:30:38.986Z,62.50
2022-12-03T07:33:05.697Z,58.17
2022-12-03T07:35:32.804Z,61.42
2022-12-03T07:37:59.479Z,67.20
2022-12-03T07:40:26.549Z,69.75
2022-12-03T07:42:53.280Z,62.60
2022-12-03T07:45:20.298Z,63.53
2022-12-03T07:47:47.086Z,65.07
2022-12-03T07:50:14.182Z,67.22
2022-12-03T07:52:40.905Z,64.40
2022-12-03T07:55:08.406Z,70.10
2022-12-03T07:57:35.146Z,62.85
2022-12-03T08:00:02.188Z,65.15
2022-12-03T08:02:29.072Z,72.32
2022-12-03T08:04:56.612Z,66.93
2022-12-03T08:07:24.061Z,75.78
2022-12-03T08:09:51.115Z,72.93
2022-12-03T08:12:22.252Z,73.40
2022-12-03T08:14:49.410Z,71.72
2022-12-03T08:17:17.904Z,69.97
2022-12-03T08:19:46.496Z,68.65
2022-12-03T08:22:13.950Z,70.22
2022-12-03T08:24:41.143Z,70.45
2022-12-03T08:27:18.278Z,68.32
2022-12-03T08:29:45.995Z,72.15
2022-12-03T08:32:12.862Z,72.13
2022-12-03T08:34:43.875Z,68.03
2022-12-03T08:37:17.850Z,70.07
2022-12-03T08:39:49.411Z,65.10
2022-12-03T08:42:40.762Z,81.50
2022-12-03T08:45:28.086Z,84.82
2022-12-03T08:48:26.828Z,84.35
2022-12-03T08:51:02.094Z,84.78
2022-12-03T08:53:36.747Z,86.38
2022-12-03T08:56:25.195Z,87.30
2022-12-03T08:58:58.848Z,90.68
2022-12-03T09:01:32.897Z,88.63
2022-12-03T09:04:20.879Z,91.10
2022-12-03T09:06:48.043Z,91.32
2022-12-03T09:09:14.764Z,88.85
2022-12-03T09:11:43.222Z,93.90
2022-12-03T09:14:15.127Z,90.35
2022-12-03T09:19:12.118Z,95.25
2022-12-03T09:21:39.111Z,91.05
2022-12-03T09:24:06.122Z,91.10
2022-12-03T09:26:33.150Z,90.65
2022-12-03T09:28:59.853Z,94.00
2022-12-03T09:31:27.125Z,100.03
2022-12-03T09:33:53.974Z,89.75
2022-12-03T09:36:20.978Z,93.15
2022-12-03T09:38:48.353Z,90.00
2022-12-03T09:41:15.608Z,90.22
2022-12-03T09:44:03.190Z,92.70
2022-12-03T09:46:29.637Z,96.90
2022-12-03T09:48:56.791Z,100.88
2022-12-03T09:51:26.161Z,105.10
2022-12-03T09:53:52.882Z,97.78
2022-12-03T09:56:22.135Z,103.20
2022-12-03T09:58:49.437Z,104.93
2022-12-03T10:01:16.651Z,107.82
2022-12-03T10:03:48.117Z,99.88
2022-12-03T10:06:20.364Z,100.78
2022-12-03T10:08:48.721Z,101.80
2022-12-03T10:11:17.268Z,96.80
2022-12-03T10:13:44.254Z,101.40
2022-12-03T10:16:12.505Z,94.32
2022-12-03T10:18:41.842Z,98.47
2022-12-03T10:21:17.186Z,97.78
2022-12-03T10:23:43.938Z,101.10
2022-12-03T10:26:10.977Z,100.07
2022-12-03T10:28:39.571Z,103.95
2022-12-03T10:31:08.489Z,103.55
2022-12-03T10:33:48.130Z,95.47
2022-12-03T10:36:27.393Z,99.53
2022-12-03T10:39:18.417Z,101.40
2022-12-03T10:41:45.476Z,103.57
2022-12-03T10:44:22.529Z,103.20
2022-12-03T10:47:10.340Z,104.97
2022-12-03T10:49:37.496Z,104.97
2022-12-03T10:52:06.318Z,103.95
2022-12-03T10:54:33.917Z,95.90
2022-12-03T10:57:01.578Z,98.28
2022-12-03T10:59:30.163Z,105.50
2022-12-03T11:01:57.281Z,97.18
2022-12-03T11:04:30.188Z,106.68
2022-12-03T11:06:57.270Z,100.30
2022-12-03T11:09:26.622Z,97.78
2022-12-03T11:11:53.826Z,97.75
2022-12-03T11:14:48.733Z,98.22
2022-12-03T11:17:39.547Z,117.37
2022-12-03T11:20:26.682Z,102.85
2022-12-03T11:22:57.350Z,101.22
2022-12-03T11:25:27.185Z,102.00
2022-12-03T11:28:15.696Z,108.68
2022-12-03T11:30:51.612Z,109.35
2022-12-03T11:33:25.034Z,105.43
2022-12-03T11:36:03.975Z,103.15
2022-12-03T11:38:56.028Z,99.57
2022-12-03T11:41:33.363Z,104.40
2022-12-03T11:44:05.711Z,105.43
2022-12-03T11:46:38.732Z,109.53
2022-12-03T11:49:35.673Z,99.55
2022-12-03T11:52:11.799Z,102.05
2022-12-03T11:54:38.811Z,102.43
2022-12-03T11:57:26.924Z,116.43
2022-12-03T12:00:02.426Z,110.90
2022-12-03T12:02:29.259Z,103.78
2022-12-03T12:04:56.480Z,99.70
2022-12-03T12:07:36.293Z,105.38
2022-12-03T12:10:03.534Z,101.53
2022-12-03T12:12:32.298Z,102.95
2022-12-03T12:14:59.425Z,97.47
2022-12-03T12:17:30.392Z,99.65
2022-12-03T12:20:25.174Z,96.60
2022-12-03T12:22:52.992Z,100.85
2022-12-03T12:25:37.377Z,95.65
2022-12-03T12:28:04.108Z,99.82
2022-12-03T12:30:31.203Z,96.70
2022-12-03T12:33:27.685Z,98.00
2022-12-03T12:35:54.728Z,102.78
2022-12-03T12:38:21.697Z,102.93
2022-12-03T12:40:49.637Z,110.50
2022-12-03T12:43:20.470Z,108.15
2022-12-03T12:45:51.439Z,112.65
2022-12-03T12:48:36.464Z,107.60
2022-12-03T12:51:10.500Z,112.03
2022-12-03T12:53:37.678Z,106.68
2022-12-03T12:56:24.685Z,104.85
2022-12-03T12:58:51.583Z,97.97
2022-12-03T13:01:25.162Z,120.75
2022-12-03T13:03:52.057Z,124.22
2022-12-03T13:06:21.508Z,124.65
2022-12-03T13:08:49.068Z,122.20
2022-12-03T13:11:25.359Z,113.30
2022-12-03T13:13:52.140Z,111.15
2022-12-03T13:16:21.369Z,114.70
2022-12-03T13:18:58.176Z,115.60
2022-12-03T13:21:41.806Z,114.53
2022-12-03T13:24:28.812Z,107.03
2022-12-03T13:26:56.148Z,108.90
2022-12-03T13:29:22.936Z,106.05
2022-12-03T13:31:54.322Z,105.80
2022-12-03T13:34:25.665Z,101.50
2022-12-03T13:36:58.177Z,114.78
2022-12-03T13:39:33.302Z,115.47
2022-12-03T13:42:40.941Z,118.95
2022-12-03T13:45:13.763Z,110.28
2022-12-03T13:47:45.271Z,115.88
2022-12-03T13:50:22.294Z,121.60
2022-12-03T13:52:49.395Z,106.45
2022-12-03T13:55:31.028Z,108.68
2022-12-03T13:57:58.253Z,108.85
2022-12-03T14:00:25.118Z,112.95
2022-12-03T14:02:52.344Z,106.47
2022-12-03T14:05:36.980Z,109.90
2022-12-03T14:08:04.958Z,111.55
2022-12-03T14:10:31.848Z,109.90
2022-12-03T14:12:58.939Z,111.38
2022-12-03T14:15:26.464Z,108.28
2022-12-03T14:17:53.708Z,110.45
2022-12-03T14:20:20.612Z,114.10
2022-12-03T14:22:47.664Z,108.43
2022-12-03T14:25:14.456Z,108.07
2022-12-03T14:27:41.559Z,99.60
2022-12-03T14:30:08.985Z,109.68
2022-12-03T14:32:36.089Z,110.75
2022-12-03T14:35:08.130Z,114.50
2022-12-03T14:37:36.933Z,111.68
2022-12-03T14:40:03.999Z,114.43
2022-12-03T14:42:31.047Z,116.32
2022-12-03T14:44:57.826Z,115.97
2022-12-03T14:47:24.916Z,121.35
2022-12-03T14:49:52.039Z,122.80
2022-12-03T14:52:19.792Z,128.32
2022-12-03T14:54:46.592Z,132.30
2022-12-03T14:57:14.180Z,126.72
2022-12-03T14:59:41.716Z,137.95
2022-12-03T15:02:09.551Z,129.15
2022-12-03T15:04:36.537Z,119.32
2022-12-03T15:07:03.686Z,124.63
2022-12-03T15:09:30.500Z,125.07
2022-12-03T15:11:57.633Z,121.60
2022-12-03T15:14:24.343Z,114.78
2022-12-03T15:16:51.597Z,116.38
2022-12-03T15:19:18.346Z,121.05
2022-12-03T15:21:45.381Z,113.40
2022-12-03T15:24:12.122Z,113.68
2022-12-03T15:26:39.200Z,110.78
2022-12-03T15:29:05.942Z,107.82
2022-12-03T15:31:33.178Z,114.30
2022-12-03T15:33:59.992Z,113.53
2022-12-03T15:36:27.056Z,110.38
2022-12-03T15:38:53.826Z,110.05
2022-12-03T15:41:21.420Z,116.53
2022-12-03T15:43:48.740Z,120.80
2022-12-03T15:46:16.066Z,115.05
2022-12-03T15:48:42.891Z,107.63
2022-12-03T15:51:10.008Z,111.10
2022-12-03T15:53:37.075Z,116.78
2022-12-03T15:56:04.372Z,107.53
2022-12-03T15:58:31.068Z,110.95
2022-12-03T16:00:58.197Z,106.65
2022-12-03T16:03:24.999Z,107.70
2022-12-03T16:05:52.076Z,112.65
2022-12-03T16:08:18.951Z,116.00
2022-12-03T16:10:46.015Z,108.07
2022-12-03T16:13:12.795Z,100.20
2022-12-03T16:15:39.976Z,109.00
2022-12-03T16:18:06.798Z,109.68
2022-12-03T16:20:34.162Z,106.75
2022-12-03T16:23:01.052Z,104.47
2022-12-03T16:25:28.127Z,109.80
2022-12-03T16:27:54.891Z,118.13
2022-12-03T16:30:21.882Z,113.78
2022-12-03T16:32:48.738Z,104.80
2022-12-03T16:35:15.853Z,107.82
2022-12-03T16:37:42.729Z,107.78
2022-12-03T16:40:11.537Z,111.32
2022-12-03T16:42:38.502Z,105.15
2022-12-03T16:45:08.856Z,105.50
2022-12-03T16:47:35.578Z,110.88
2022-12-03T16:50:03.851Z,108.72
2022-12-03T16:52:30.666Z,103.00
2022-12-03T16:54:57.697Z,106.40
2022-12-03T16:57:26.556Z,101.55
2022-12-03T16:59:57.375Z,100.93
2022-12-03T17:02:24.158Z,101.93
2022-12-03T17:04:51.352Z,103.53
2022-12-03T17:07:18.085Z,110.90
2022-12-03T17:09:45.169Z,100.68
2022-12-03T17:12:11.918Z,96.88
2022-12-03T17:14:38.957Z,99.22
2022-12-03T17:17:05.701Z,99.85
2022-12-03T17:19:32.760Z,101.35
2022-12-03T17:21:59.867Z,107.75
2022-12-03T17:24:26.991Z,108.63
2022-12-03T17:26:53.724Z,102.95
2022-12-03T17:29:20.817Z,103.53
2022-12-03T17:31:47.650Z,111.70
2022-12-03T17:34:14.753Z,100.50
2022-12-03T17:36:41.486Z,104.32
2022-12-03T17:39:08.541Z,97.35
2022-12-03T17:41:35.445Z,112.43
2022-12-03T17:44:07.259Z,112.60
2022-12-03T17:46:36.644Z,103.05
2022-12-03T17:49:03.761Z,107.78
2022-12-03T17:51:30.701Z,105.57
2022-12-03T17:53:57.782Z,110.63
2022-12-03T17:56:24.538Z,119.75
2022-12-03T17:58:51.678Z,116.72
2022-12-03T18:01:18.451Z,125.18
2022-12-03T18:03:45.546Z,121.13
2022-12-03T18:06:12.313Z,121.40
2022-12-03T18:08:39.340Z,123.47
2022-12-03T18:11:06.072Z,115.03
2022-12-03T18:13:33.095Z,118.88
2022-12-03T18:15:59.914Z,112.97
2022-12-03T18:18:26.968Z,110.50
2022-12-03T18:20:53.888Z,110.32
2022-12-03T18:23:20.910Z,109.80
2022-12-03T18:25:47.650Z,111.53
2022-12-03T18:28:14.681Z,119.40
2022-12-03T18:30:41.451Z,110.97
2022-12-03T18:33:08.701Z,114.82
2022-12-03T18:35:35.406Z,110.63
2022-12-03T18:38:02.440Z,109.43
2022-12-03T18:40:29.230Z,104.18
2022-12-03T18:42:56.992Z,110.43
2022-12-03T18:45:23.804Z,105.65
2022-12-03T18:47:50.850Z,98.03
2022-12-03T18:50:17.662Z,102.07
2022-12-03T18:52:44.782Z,104.95
2022-12-03T18:55:15.168Z,103.15
2022-12-03T18:57:42.335Z,107.07
2022-12-03T19:00:13.495Z,101.68
2022-12-03T19:05:28.160Z,100.28
2022-12-03T19:07:56.575Z,99.47
2022-12-03T19:10:23.709Z,106.22
2022-12-03T19:12:50.851Z,99.80
2022-12-03T19:15:17.713Z,98.28
2022-12-03T19:17:49.259Z,95.13
2022-12-03T19:20:16.030Z,98.78
2022-12-03T19:22:43.099Z,102.95
2022-12-03T19:25:09.961Z,103.20
2022-12-03T19:27:37.153Z,93.00
2022-12-03T19:30:04.626Z,97.00
2022-12-03T19:32:31.854Z,98.80
2022-12-03T19:34:58.679Z,91.32
2022-12-03T19:37:25.769Z,95.75
2022-12-03T19:39:53.577Z,91.30
2022-12-03T19:42:20.872Z,92.53
2022-12-03T19:44:47.632Z,87.20
2022-12-03T19:47:14.635Z,92.40
2022-12-03T19:49:41.377Z,94.20
2022-12-03T19:52:08.472Z,96.07
2022-12-03T19:54:35.159Z,93.70
2022-12-03T19:57:02.196Z,97.20
2022-12-03T19:59:28.997Z,98.15
2022-12-03T20:01:56.163Z,96.85
2022-12-03T20:04:22.987Z,100.45
2022-12-03T20:06:50.106Z,94.22
2022-12-03T20:09:18.013Z,93.15
2022-12-03T20:11:46.021Z,93.25
2022-12-03T20:14:16.171Z,102.00
2022-12-03T20:16:44.195Z,96.90
2022-12-03T20:19:12.491Z,96.10
2022-12-03T20:21:39.828Z,102.95
2022-12-03T20:24:06.911Z,100.25
2022-12-03T20:26:34.098Z,92.15
2022-12-03T20:29:01.032Z,94.35
2022-12-03T20:31:29.791Z,103.53
2022-12-03T20:33:58.425Z,100.35
2022-12-03T20:36:28.082Z,100.80
2022-12-03T20:38:58.998Z,96.22
2022-12-03T20:41:26.226Z,94.22
2022-12-03T20:43:53.345Z,94.20
2022-12-03T20:46:25.882Z,98.32
2022-12-03T20:48:54.100Z,100.07
2022-12-03T20:51:23.056Z,96.25
2022-12-03T20:53:49.897Z,97.97
2022-12-03T20:56:22.089Z,96.32
2022-12-03T20:58:49.337Z,107.38
2022-12-03T21:01:18.276Z,102.25
2022-12-03T21:03:45.338Z,97.82
2022-12-03T21:06:12.797Z,96.10
2022-12-03T21:08:42.220Z,90.18
2022-12-03T21:11:10.768Z,90.63
2022-12-03T21:13:41.103Z,104.43
2022-12-03T21:16:08.977Z,98.35
2022-12-03T21:18:35.722Z,98.50
2022-12-03T21:21:03.179Z,97.95
2022-12-03T21:23:30.525Z,97.65
2022-12-03T21:26:08.678Z,95.38
2022-12-03T21:28:35.517Z,96.38
2022-12-03T21:31:04.165Z,97.82
2022-12-03T21:33:31.475Z,98.03
2022-12-03T21:35:58.919Z,92.32
2022-12-03T21:38:25.970Z,96.35
2022-12-03T21:40:53.119Z,96.15
2022-12-03T21:43:20.007Z,88.45
2022-12-03T21:45:47.116Z,91.03
2022-12-03T21:48:13.957Z,94.68
2022-12-03T21:50:41.029Z,88.70
2022-12-03T21:53:07.807Z,90.40
2022-12-03T21:55:34.883Z,86.85
2022-12-03T21:58:01.896Z,85.47
2022-12-03T22:00:28.999Z,91.55
2022-12-03T22:02:55.787Z,89.68
2022-12-03T22:05:22.879Z,87.90
2022-12-03T22:07:49.641Z,88.35
2022-12-03T22:10:16.848Z,92.43
2022-12-03T22:12:43.631Z,92.75
2022-12-03T22:15:15.086Z,91.47
2022-12-03T22:17:45.363Z,97.13
2022-12-03T22:20:12.494Z,92.65
2022-12-03T22:22:39.286Z,89.28
2022-12-03T22:25:06.542Z,90.70
2022-12-03T22:27:33.299Z,92.63
2022-12-03T22:30:00.406Z,88.28
2022-12-03T22:32:27.321Z,90.25
2022-12-03T22:34:54.332Z,91.20
2022-12-03T22:37:21.097Z,87.25
2022-12-03T22:39:48.130Z,84.05
2022-12-03T22:42:14.838Z,83.63
2022-12-03T22:44:41.880Z,88.25
2022-12-03T22:47:08.653Z,86.03
2022-12-03T22:49:35.739Z,87.70
2022-12-03T22:52:02.480Z,83.43
2022-12-03T22:54:29.532Z,86.75
2022-12-03T22:56:56.660Z,85.70
2022-12-03T22:59:23.684Z,91.53
2022-12-03T23:01:50.445Z,80.25
2022-12-03T23:04:17.581Z,78.50
2022-12-03T23:06:44.399Z,83.63
2022-12-03T23:09:11.457Z,81.65
2022-12-03T23:11:38.383Z,86.22
2022-12-03T23:14:05.433Z,88.80
2022-12-03T23:16:32.753Z,86.82
2022-12-03T23:19:00.495Z,87.10
2022-12-03T23:21:30.148Z,89.20
2022-12-03T23:23:58.900Z,81.15
2022-12-03T23:26:25.743Z,81.55
2022-12-03T23:28:52.773Z,91.15
2022-12-03T23:31:20.583Z,84.28
2022-12-03T23:33:47.758Z,88.18
2022-12-03T23:36:14.624Z,80.88
2022-12-03T23:38:41.712Z,77.45
2022-12-03T23:41:13.364Z,81.63
2022-12-03T23:43:41.015Z,78.47
2022-12-03T23:46:10.198Z,83.45
2022-12-03T23:48:37.312Z,79.95
2022-12-03T23:51:08.129Z,75.60
2022-12-03T23:53:35.881Z,87.32
2022-12-03T23:56:20.324Z,82.32
2022-12-03T23:58:47.447Z,78.63
